sensor_id;sensor_type;location;lat;lon;timestamp;P1;durP1;ratioP1;P2;durP2;ratioP2
75928;SDS011;64606;44.062;2.986;2023-06-22T00:01:54;22.80;;;6.22;;
75928;SDS011;64606;44.062;2.986;2023-06-22T00:04:20;19.65;;;5.88;;
75928;SDS011;64606;44.062;2.986;2023-06-22T00:06:46;18.98;;;6.22;;
75928;SDS011;64606;44.062;2.986;2023-06-22T00:09:12;25.10;;;7.15;;
75928;SDS011;64606;44.062;2.986;2023-06-22T00:11:38;24.02;;;7.15;;
75928;SDS011;64606;44.062;2.986;2023-06-22T00:14:04;24.60;;;6.55;;
75928;SDS011;64606;44.062;2.986;2023-06-22T00:16:33;16.35;;;6.60;;
75928;SDS011;64606;44.062;2.986;2023-06-22T00:19:00;20.75;;;6.55;;
75928;SDS011;64606;44.062;2.986;2023-06-22T00:21:27;23.35;;;6.85;;
75928;SDS011;64606;44.062;2.986;2023-06-22T00:23:53;24.75;;;7.18;;
75928;SDS011;64606;44.062;2.986;2023-06-22T00:26:20;24.40;;;7.85;;
75928;SDS011;64606;44.062;2.986;2023-06-22T00:28:47;23.73;;;7.55;;
75928;SDS011;64606;44.062;2.986;2023-06-22T00:31:13;26.02;;;7.60;;
75928;SDS011;64606;44.062;2.986;2023-06-22T00:33:39;22.08;;;6.93;;
75928;SDS011;64606;44.062;2.986;2023-06-22T00:36:05;28.05;;;6.80;;
75928;SDS011;64606;44.062;2.986;2023-06-22T00:38:38;21.35;;;6.57;;
75928;SDS011;64606;44.062;2.986;2023-06-22T00:41:05;25.98;;;6.78;;
75928;SDS011;64606;44.062;2.986;2023-06-22T00:43:31;20.55;;;7.72;;
75928;SDS011;64606;44.062;2.986;2023-06-22T00:45:57;30.70;;;7.45;;
75928;SDS011;64606;44.062;2.986;2023-06-22T00:48:23;35.88;;;7.47;;
75928;SDS011;64606;44.062;2.986;2023-06-22T00:50:50;24.83;;;7.60;;
75928;SDS011;64606;44.062;2.986;2023-06-22T00:53:18;18.13;;;6.80;;
75928;SDS011;64606;44.062;2.986;2023-06-22T00:55:45;25.20;;;7.82;;
75928;SDS011;64606;44.062;2.986;2023-06-22T00:58:18;22.95;;;7.57;;
75928;SDS011;64606;44.062;2.986;2023-06-22T01:00:46;25.23;;;7.65;;
75928;SDS011;64606;44.062;2.986;2023-06-22T01:03:13;25.95;;;7.43;;
75928;SDS011;64606;44.062;2.986;2023-06-22T01:05:39;25.40;;;7.43;;
75928;SDS011;64606;44.062;2.986;2023-06-22T01:10:45;28.60;;;7.70;;
75928;SDS011;64606;44.062;2.986;2023-06-22T01:13:18;23.33;;;7.50;;
75928;SDS011;64606;44.062;2.986;2023-06-22T01:15:48;21.95;;;7.60;;
75928;SDS011;64606;44.062;2.986;2023-06-22T01:18:16;19.98;;;6.95;;
75928;SDS011;64606;44.062;2.986;2023-06-22T01:20:43;26.63;;;7.40;;
75928;SDS011;64606;44.062;2.986;2023-06-22T01:23:19;24.17;;;7.43;;
75928;SDS011;64606;44.062;2.986;2023-06-22T01:28:30;23.33;;;7.85;;
75928;SDS011;64606;44.062;2.986;2023-06-22T01:30:57;26.08;;;7.38;;
75928;SDS011;64606;44.062;2.986;2023-06-22T01:33:34;26.95;;;8.07;;
75928;SDS011;64606;44.062;2.986;2023-06-22T01:36:01;20.70;;;7.30;;
75928;SDS011;64606;44.062;2.986;2023-06-22T01:38:29;27.65;;;8.27;;
75928;SDS011;64606;44.062;2.986;2023-06-22T01:40:55;24.77;;;8.52;;
75928;SDS011;64606;44.062;2.986;2023-06-22T01:43:22;27.92;;;8.43;;
75928;SDS011;64606;44.062;2.986;2023-06-22T01:45:50;31.85;;;7.65;;
75928;SDS011;64606;44.062;2.986;2023-06-22T01:48:17;21.00;;;7.78;;
75928;SDS011;64606;44.062;2.986;2023-06-22T01:50:43;23.30;;;7.22;;
75928;SDS011;64606;44.062;2.986;2023-06-22T01:53:10;20.73;;;8.07;;
75928;SDS011;64606;44.062;2.986;2023-06-22T01:55:36;24.08;;;8.00;;
75928;SDS011;64606;44.062;2.986;2023-06-22T01:58:02;26.92;;;7.88;;
75928;SDS011;64606;44.062;2.986;2023-06-22T02:00:29;23.77;;;7.30;;
75928;SDS011;64606;44.062;2.986;2023-06-22T02:06:24;19.88;;;8.20;;
75928;SDS011;64606;44.062;2.986;2023-06-22T02:08:33;21.00;;;7.85;;
75928;SDS011;64606;44.062;2.986;2023-06-22T02:11:01;25.55;;;8.30;;
75928;SDS011;64606;44.062;2.986;2023-06-22T02:13:28;22.10;;;8.32;;
75928;SDS011;64606;44.062;2.986;2023-06-22T02:15:54;18.50;;;7.45;;
75928;SDS011;64606;44.062;2.986;2023-06-22T02:18:20;32.33;;;8.50;;
75928;SDS011;64606;44.062;2.986;2023-06-22T02:20:46;21.92;;;7.63;;
75928;SDS011;64606;44.062;2.986;2023-06-22T02:23:12;27.15;;;7.28;;
75928;SDS011;64606;44.062;2.986;2023-06-22T02:25:39;18.70;;;7.25;;
75928;SDS011;64606;44.062;2.986;2023-06-22T02:28:05;26.55;;;7.90;;
75928;SDS011;64606;44.062;2.986;2023-06-22T02:30:31;26.17;;;7.75;;
75928;SDS011;64606;44.062;2.986;2023-06-22T02:32:57;22.25;;;7.55;;
75928;SDS011;64606;44.062;2.986;2023-06-22T02:35:27;20.77;;;8.45;;
75928;SDS011;64606;44.062;2.986;2023-06-22T02:37:57;27.08;;;8.10;;
75928;SDS011;64606;44.062;2.986;2023-06-22T02:40:23;27.48;;;7.60;;
75928;SDS011;64606;44.062;2.986;2023-06-22T02:42:49;22.55;;;7.50;;
75928;SDS011;64606;44.062;2.986;2023-06-22T02:45:15;26.13;;;7.88;;
75928;SDS011;64606;44.062;2.986;2023-06-22T02:47:41;21.00;;;7.22;;
75928;SDS011;64606;44.062;2.986;2023-06-22T02:50:07;26.27;;;7.53;;
75928;SDS011;64606;44.062;2.986;2023-06-22T02:52:33;17.38;;;7.32;;
75928;SDS011;64606;44.062;2.986;2023-06-22T02:55:00;19.02;;;8.02;;
75928;SDS011;64606;44.062;2.986;2023-06-22T02:57:26;23.92;;;7.20;;
75928;SDS011;64606;44.062;2.986;2023-06-22T02:59:52;29.85;;;8.88;;
75928;SDS011;64606;44.062;2.986;2023-06-22T03:02:18;23.58;;;8.38;;
75928;SDS011;64606;44.062;2.986;2023-06-22T03:04:46;17.10;;;7.63;;
75928;SDS011;64606;44.062;2.986;2023-06-22T03:07:19;15.90;;;7.28;;
75928;SDS011;64606;44.062;2.986;2023-06-22T03:09:45;22.55;;;8.02;;
75928;SDS011;64606;44.062;2.986;2023-06-22T03:12:11;21.00;;;7.18;;
75928;SDS011;64606;44.062;2.986;2023-06-22T03:14:37;23.00;;;8.13;;
75928;SDS011;64606;44.062;2.986;2023-06-22T03:17:04;24.20;;;8.00;;
75928;SDS011;64606;44.062;2.986;2023-06-22T03:19:31;27.05;;;7.70;;
75928;SDS011;64606;44.062;2.986;2023-06-22T03:21:57;24.30;;;8.20;;
75928;SDS011;64606;44.062;2.986;2023-06-22T03:24:23;20.55;;;7.55;;
75928;SDS011;64606;44.062;2.986;2023-06-22T03:26:49;26.98;;;8.13;;
75928;SDS011;64606;44.062;2.986;2023-06-22T03:29:16;22.08;;;8.25;;
75928;SDS011;64606;44.062;2.986;2023-06-22T03:31:42;27.98;;;7.95;;
75928;SDS011;64606;44.062;2.986;2023-06-22T03:34:08;27.90;;;8.38;;
75928;SDS011;64606;44.062;2.986;2023-06-22T03:36:34;22.55;;;7.78;;
75928;SDS011;64606;44.062;2.986;2023-06-22T03:39:00;20.00;;;8.05;;
75928;SDS011;64606;44.062;2.986;2023-06-22T03:41:26;23.10;;;8.40;;
75928;SDS011;64606;44.062;2.986;2023-06-22T03:43:53;19.58;;;7.30;;
75928;SDS011;64606;44.062;2.986;2023-06-22T03:46:19;21.20;;;8.35;;
75928;SDS011;64606;44.062;2.986;2023-06-22T03:48:45;24.95;;;7.85;;
75928;SDS011;64606;44.062;2.986;2023-06-22T03:51:11;18.40;;;7.43;;
75928;SDS011;64606;44.062;2.986;2023-06-22T03:53:37;19.48;;;7.63;;
75928;SDS011;64606;44.062;2.986;2023-06-22T03:56:03;18.73;;;7.30;;
75928;SDS011;64606;44.062;2.986;2023-06-22T03:58:29;26.73;;;8.40;;
75928;SDS011;64606;44.062;2.986;2023-06-22T04:00:58;28.35;;;8.27;;
75928;SDS011;64606;44.062;2.986;2023-06-22T04:03:25;26.17;;;8.27;;
75928;SDS011;64606;44.062;2.986;2023-06-22T04:05:51;29.75;;;9.13;;
75928;SDS011;64606;44.062;2.986;2023-06-22T04:08:17;26.45;;;8.73;;
75928;SDS011;64606;44.062;2.986;2023-06-22T04:10:43;24.05;;;8.02;;
75928;SDS011;64606;44.062;2.986;2023-06-22T04:13:10;23.70;;;9.40;;
75928;SDS011;64606;44.062;2.986;2023-06-22T04:15:36;25.60;;;8.50;;
75928;SDS011;64606;44.062;2.986;2023-06-22T04:18:02;18.85;;;8.32;;
75928;SDS011;64606;44.062;2.986;2023-06-22T04:20:28;23.70;;;8.68;;
75928;SDS011;64606;44.062;2.986;2023-06-22T04:22:54;23.25;;;8.63;;
75928;SDS011;64606;44.062;2.986;2023-06-22T04:25:21;21.00;;;8.40;;
75928;SDS011;64606;44.062;2.986;2023-06-22T04:27:48;21.63;;;8.25;;
75928;SDS011;64606;44.062;2.986;2023-06-22T04:30:14;19.08;;;8.02;;
75928;SDS011;64606;44.062;2.986;2023-06-22T04:32:41;22.02;;;7.13;;
75928;SDS011;64606;44.062;2.986;2023-06-22T04:35:07;22.98;;;7.90;;
75928;SDS011;64606;44.062;2.986;2023-06-22T04:37:33;24.80;;;8.02;;
75928;SDS011;64606;44.062;2.986;2023-06-22T04:40:00;19.65;;;8.45;;
75928;SDS011;64606;44.062;2.986;2023-06-22T04:42:26;19.48;;;8.98;;
75928;SDS011;64606;44.062;2.986;2023-06-22T04:44:52;20.65;;;9.13;;
75928;SDS011;64606;44.062;2.986;2023-06-22T04:47:19;19.90;;;8.18;;
75928;SDS011;64606;44.062;2.986;2023-06-22T04:49:45;22.35;;;8.98;;
75928;SDS011;64606;44.062;2.986;2023-06-22T04:52:11;19.42;;;8.25;;
75928;SDS011;64606;44.062;2.986;2023-06-22T04:54:38;16.00;;;7.80;;
75928;SDS011;64606;44.062;2.986;2023-06-22T04:57:06;21.58;;;8.65;;
75928;SDS011;64606;44.062;2.986;2023-06-22T04:59:35;20.92;;;8.27;;
75928;SDS011;64606;44.062;2.986;2023-06-22T05:02:04;18.33;;;8.27;;
75928;SDS011;64606;44.062;2.986;2023-06-22T05:04:31;21.98;;;8.60;;
75928;SDS011;64606;44.062;2.986;2023-06-22T05:06:57;21.10;;;8.45;;
75928;SDS011;64606;44.062;2.986;2023-06-22T05:09:24;26.25;;;9.18;;
75928;SDS011;64606;44.062;2.986;2023-06-22T05:11:50;22.73;;;8.25;;
75928;SDS011;64606;44.062;2.986;2023-06-22T05:14:17;21.23;;;8.25;;
75928;SDS011;64606;44.062;2.986;2023-06-22T05:16:43;23.35;;;8.40;;
75928;SDS011;64606;44.062;2.986;2023-06-22T05:19:09;26.92;;;9.30;;
75928;SDS011;64606;44.062;2.986;2023-06-22T05:21:36;20.08;;;8.05;;
75928;SDS011;64606;44.062;2.986;2023-06-22T05:24:02;26.00;;;9.13;;
75928;SDS011;64606;44.062;2.986;2023-06-22T05:26:29;21.83;;;9.25;;
75928;SDS011;64606;44.062;2.986;2023-06-22T05:28:55;18.48;;;8.80;;
75928;SDS011;64606;44.062;2.986;2023-06-22T05:31:22;17.83;;;9.10;;
75928;SDS011;64606;44.062;2.986;2023-06-22T05:33:48;26.25;;;8.65;;
75928;SDS011;64606;44.062;2.986;2023-06-22T05:36:14;22.95;;;9.25;;
75928;SDS011;64606;44.062;2.986;2023-06-22T05:38:41;24.17;;;8.68;;
75928;SDS011;64606;44.062;2.986;2023-06-22T05:41:07;19.38;;;8.50;;
75928;SDS011;64606;44.062;2.986;2023-06-22T05:43:34;19.38;;;8.20;;
75928;SDS011;64606;44.062;2.986;2023-06-22T05:46:00;20.95;;;8.40;;
75928;SDS011;64606;44.062;2.986;2023-06-22T05:48:27;20.60;;;9.23;;
75928;SDS011;64606;44.062;2.986;2023-06-22T05:50:53;22.92;;;9.07;;
75928;SDS011;64606;44.062;2.986;2023-06-22T05:53:19;25.80;;;9.48;;
75928;SDS011;64606;44.062;2.986;2023-06-22T05:55:46;22.23;;;8.80;;
75928;SDS011;64606;44.062;2.986;2023-06-22T05:58:12;28.65;;;9.18;;
75928;SDS011;64606;44.062;2.986;2023-06-22T06:00:38;18.15;;;8.73;;
75928;SDS011;64606;44.062;2.986;2023-06-22T06:03:05;24.58;;;9.18;;
75928;SDS011;64606;44.062;2.986;2023-06-22T06:05:31;33.33;;;10.32;;
75928;SDS011;64606;44.062;2.986;2023-06-22T06:07:57;32.13;;;11.23;;
75928;SDS011;64606;44.062;2.986;2023-06-22T06:10:24;33.53;;;10.15;;
75928;SDS011;64606;44.062;2.986;2023-06-22T06:12:50;21.38;;;8.98;;
75928;SDS011;64606;44.062;2.986;2023-06-22T06:15:16;19.45;;;9.38;;
75928;SDS011;64606;44.062;2.986;2023-06-22T06:17:46;21.73;;;9.75;;
75928;SDS011;64606;44.062;2.986;2023-06-22T06:20:12;23.00;;;9.68;;
75928;SDS011;64606;44.062;2.986;2023-06-22T06:22:39;18.33;;;9.73;;
75928;SDS011;64606;44.062;2.986;2023-06-22T06:25:05;19.92;;;8.80;;
75928;SDS011;64606;44.062;2.986;2023-06-22T06:27:31;19.98;;;10.00;;
75928;SDS011;64606;44.062;2.986;2023-06-22T06:29:57;22.48;;;9.25;;
75928;SDS011;64606;44.062;2.986;2023-06-22T06:32:23;31.23;;;9.73;;
75928;SDS011;64606;44.062;2.986;2023-06-22T06:34:49;29.80;;;12.43;;
75928;SDS011;64606;44.062;2.986;2023-06-22T06:37:16;32.13;;;12.40;;
75928;SDS011;64606;44.062;2.986;2023-06-22T06:39:43;28.42;;;12.52;;
75928;SDS011;64606;44.062;2.986;2023-06-22T06:42:09;29.60;;;11.43;;
75928;SDS011;64606;44.062;2.986;2023-06-22T06:44:36;27.25;;;10.50;;
75928;SDS011;64606;44.062;2.986;2023-06-22T06:47:03;28.23;;;11.10;;
75928;SDS011;64606;44.062;2.986;2023-06-22T06:49:29;25.42;;;10.38;;
75928;SDS011;64606;44.062;2.986;2023-06-22T06:51:55;24.27;;;9.82;;
75928;SDS011;64606;44.062;2.986;2023-06-22T06:54:21;24.58;;;11.10;;
75928;SDS011;64606;44.062;2.986;2023-06-22T06:56:48;26.75;;;10.07;;
75928;SDS011;64606;44.062;2.986;2023-06-22T06:59:14;23.23;;;9.23;;
75928;SDS011;64606;44.062;2.986;2023-06-22T07:01:41;22.67;;;9.52;;
75928;SDS011;64606;44.062;2.986;2023-06-22T07:04:09;20.85;;;10.15;;
75928;SDS011;64606;44.062;2.986;2023-06-22T07:06:35;23.08;;;8.88;;
75928;SDS011;64606;44.062;2.986;2023-06-22T07:09:02;19.60;;;8.73;;
75928;SDS011;64606;44.062;2.986;2023-06-22T07:11:29;26.58;;;9.13;;
75928;SDS011;64606;44.062;2.986;2023-06-22T07:13:55;21.92;;;8.93;;
75928;SDS011;64606;44.062;2.986;2023-06-22T07:16:21;21.17;;;8.27;;
75928;SDS011;64606;44.062;2.986;2023-06-22T07:18:48;15.20;;;7.93;;
75928;SDS011;64606;44.062;2.986;2023-06-22T07:21:14;20.98;;;8.77;;
75928;SDS011;64606;44.062;2.986;2023-06-22T07:23:41;14.77;;;7.00;;
75928;SDS011;64606;44.062;2.986;2023-06-22T07:26:07;14.40;;;6.53;;
75928;SDS011;64606;44.062;2.986;2023-06-22T07:28:33;15.13;;;6.18;;
75928;SDS011;64606;44.062;2.986;2023-06-22T07:31:03;14.38;;;6.38;;
75928;SDS011;64606;44.062;2.986;2023-06-22T07:33:29;13.25;;;6.05;;
75928;SDS011;64606;44.062;2.986;2023-06-22T07:35:55;15.32;;;7.00;;
75928;SDS011;64606;44.062;2.986;2023-06-22T07:38:21;12.38;;;6.20;;
75928;SDS011;64606;44.062;2.986;2023-06-22T07:40:47;15.65;;;6.22;;
75928;SDS011;64606;44.062;2.986;2023-06-22T07:43:13;11.65;;;4.90;;
75928;SDS011;64606;44.062;2.986;2023-06-22T07:45:40;12.25;;;4.97;;
75928;SDS011;64606;44.062;2.986;2023-06-22T07:48:07;9.20;;;4.30;;
75928;SDS011;64606;44.062;2.986;2023-06-22T07:50:34;11.40;;;5.13;;
75928;SDS011;64606;44.062;2.986;2023-06-22T07:53:00;11.48;;;4.30;;
75928;SDS011;64606;44.062;2.986;2023-06-22T07:55:26;8.40;;;3.92;;
75928;SDS011;64606;44.062;2.986;2023-06-22T07:57:52;8.85;;;3.67;;
75928;SDS011;64606;44.062;2.986;2023-06-22T08:00:18;7.03;;;3.53;;
75928;SDS011;64606;44.062;2.986;2023-06-22T08:02:45;6.10;;;3.35;;
75928;SDS011;64606;44.062;2.986;2023-06-22T08:05:12;6.47;;;3.33;;
75928;SDS011;64606;44.062;2.986;2023-06-22T08:07:39;7.10;;;3.38;;
75928;SDS011;64606;44.062;2.986;2023-06-22T08:10:11;7.40;;;2.97;;
75928;SDS011;64606;44.062;2.986;2023-06-22T08:12:41;7.25;;;3.13;;
75928;SDS011;64606;44.062;2.986;2023-06-22T08:15:07;4.28;;;3.05;;
75928;SDS011;64606;44.062;2.986;2023-06-22T08:17:35;11.57;;;3.92;;
75928;SDS011;64606;44.062;2.986;2023-06-22T08:20:02;13.25;;;4.10;;
75928;SDS011;64606;44.062;2.986;2023-06-22T08:22:34;10.02;;;3.55;;
75928;SDS011;64606;44.062;2.986;2023-06-22T08:25:01;15.70;;;4.85;;
75928;SDS011;64606;44.062;2.986;2023-06-22T08:27:29;8.23;;;3.60;;
75928;SDS011;64606;44.062;2.986;2023-06-22T08:29:57;7.72;;;3.85;;
75928;SDS011;64606;44.062;2.986;2023-06-22T08:32:24;8.75;;;3.50;;
75928;SDS011;64606;44.062;2.986;2023-06-22T08:34:52;9.63;;;3.67;;
75928;SDS011;64606;44.062;2.986;2023-06-22T08:37:18;8.63;;;3.67;;
75928;SDS011;64606;44.062;2.986;2023-06-22T08:39:44;5.38;;;3.60;;
75928;SDS011;64606;44.062;2.986;2023-06-22T08:42:11;8.35;;;3.83;;
75928;SDS011;64606;44.062;2.986;2023-06-22T08:44:38;5.10;;;3.72;;
75928;SDS011;64606;44.062;2.986;2023-06-22T08:47:04;6.97;;;3.42;;
75928;SDS011;64606;44.062;2.986;2023-06-22T08:49:30;10.25;;;3.83;;
75928;SDS011;64606;44.062;2.986;2023-06-22T08:51:56;6.68;;;3.22;;
75928;SDS011;64606;44.062;2.986;2023-06-22T08:54:22;6.05;;;3.53;;
75928;SDS011;64606;44.062;2.986;2023-06-22T08:56:48;4.28;;;3.30;;
75928;SDS011;64606;44.062;2.986;2023-06-22T08:59:14;8.07;;;3.78;;
75928;SDS011;64606;44.062;2.986;2023-06-22T09:01:41;5.88;;;3.40;;
75928;SDS011;64606;44.062;2.986;2023-06-22T09:04:10;4.25;;;3.35;;
75928;SDS011;64606;44.062;2.986;2023-06-22T09:06:37;5.25;;;2.90;;
75928;SDS011;64606;44.062;2.986;2023-06-22T09:09:09;10.93;;;3.40;;
75928;SDS011;64606;44.062;2.986;2023-06-22T09:11:35;7.00;;;3.72;;
75928;SDS011;64606;44.062;2.986;2023-06-22T09:14:01;5.90;;;3.42;;
75928;SDS011;64606;44.062;2.986;2023-06-22T09:16:28;5.53;;;3.58;;
75928;SDS011;64606;44.062;2.986;2023-06-22T09:18:55;4.70;;;3.25;;
75928;SDS011;64606;44.062;2.986;2023-06-22T09:21:21;6.90;;;3.30;;
75928;SDS011;64606;44.062;2.986;2023-06-22T09:23:47;6.25;;;3.13;;
75928;SDS011;64606;44.062;2.986;2023-06-22T09:26:16;7.25;;;3.20;;
75928;SDS011;64606;44.062;2.986;2023-06-22T09:28:43;5.90;;;3.08;;
75928;SDS011;64606;44.062;2.986;2023-06-22T09:31:09;4.68;;;2.92;;
75928;SDS011;64606;44.062;2.986;2023-06-22T09:33:35;5.40;;;3.10;;
75928;SDS011;64606;44.062;2.986;2023-06-22T09:36:03;6.93;;;3.00;;
75928;SDS011;64606;44.062;2.986;2023-06-22T09:38:30;3.83;;;2.97;;
75928;SDS011;64606;44.062;2.986;2023-06-22T09:40:56;10.27;;;3.15;;
75928;SDS011;64606;44.062;2.986;2023-06-22T09:43:22;6.47;;;2.92;;
75928;SDS011;64606;44.062;2.986;2023-06-22T09:45:48;5.20;;;3.20;;
75928;SDS011;64606;44.062;2.986;2023-06-22T09:48:14;4.20;;;3.03;;
75928;SDS011;64606;44.062;2.986;2023-06-22T09:50:41;3.83;;;3.05;;
75928;SDS011;64606;44.062;2.986;2023-06-22T09:53:07;5.75;;;3.10;;
75928;SDS011;64606;44.062;2.986;2023-06-22T09:55:33;6.35;;;2.65;;
75928;SDS011;64606;44.062;2.986;2023-06-22T09:57:59;4.47;;;2.88;;
75928;SDS011;64606;44.062;2.986;2023-06-22T10:00:25;5.60;;;2.72;;
75928;SDS011;64606;44.062;2.986;2023-06-22T10:02:52;3.50;;;2.53;;
75928;SDS011;64606;44.062;2.986;2023-06-22T10:05:18;5.65;;;3.13;;
75928;SDS011;64606;44.062;2.986;2023-06-22T10:07:44;4.95;;;2.80;;
75928;SDS011;64606;44.062;2.986;2023-06-22T10:10:10;6.80;;;3.25;;
75928;SDS011;64606;44.062;2.986;2023-06-22T10:12:40;4.95;;;3.22;;
75928;SDS011;64606;44.062;2.986;2023-06-22T10:15:07;7.50;;;3.58;;
75928;SDS011;64606;44.062;2.986;2023-06-22T10:17:33;3.85;;;3.25;;
75928;SDS011;64606;44.062;2.986;2023-06-22T10:20:00;6.22;;;3.45;;
75928;SDS011;64606;44.062;2.986;2023-06-22T10:22:36;5.05;;;3.05;;
75928;SDS011;64606;44.062;2.986;2023-06-22T10:25:02;7.45;;;2.95;;
75928;SDS011;64606;44.062;2.986;2023-06-22T10:27:28;4.88;;;3.00;;
75928;SDS011;64606;44.062;2.986;2023-06-22T10:29:54;5.00;;;3.20;;
75928;SDS011;64606;44.062;2.986;2023-06-22T10:32:20;5.88;;;3.25;;
75928;SDS011;64606;44.062;2.986;2023-06-22T10:34:46;7.20;;;3.15;;
75928;SDS011;64606;44.062;2.986;2023-06-22T10:37:13;5.03;;;3.30;;
75928;SDS011;64606;44.062;2.986;2023-06-22T10:39:39;6.78;;;4.00;;
75928;SDS011;64606;44.062;2.986;2023-06-22T10:42:05;6.05;;;3.50;;
75928;SDS011;64606;44.062;2.986;2023-06-22T10:44:31;7.20;;;3.75;;
75928;SDS011;64606;44.062;2.986;2023-06-22T10:46:57;5.03;;;3.28;;
75928;SDS011;64606;44.062;2.986;2023-06-22T10:49:23;6.72;;;3.70;;
75928;SDS011;64606;44.062;2.986;2023-06-22T10:51:49;5.72;;;3.42;;
75928;SDS011;64606;44.062;2.986;2023-06-22T10:54:16;4.00;;;2.95;;
75928;SDS011;64606;44.062;2.986;2023-06-22T10:56:44;5.82;;;3.38;;
75928;SDS011;64606;44.062;2.986;2023-06-22T10:59:10;9.65;;;3.38;;
75928;SDS011;64606;44.062;2.986;2023-06-22T11:01:36;6.35;;;3.45;;
75928;SDS011;64606;44.062;2.986;2023-06-22T11:04:03;7.47;;;3.30;;
75928;SDS011;64606;44.062;2.986;2023-06-22T11:06:29;7.18;;;3.55;;
75928;SDS011;64606;44.062;2.986;2023-06-22T11:08:55;8.60;;;3.80;;
75928;SDS011;64606;44.062;2.986;2023-06-22T11:11:21;4.20;;;3.08;;
75928;SDS011;64606;44.062;2.986;2023-06-22T11:13:47;6.70;;;3.15;;
75928;SDS011;64606;44.062;2.986;2023-06-22T11:16:13;4.40;;;3.10;;
75928;SDS011;64606;44.062;2.986;2023-06-22T11:18:41;4.68;;;3.20;;
75928;SDS011;64606;44.062;2.986;2023-06-22T11:21:07;6.85;;;3.30;;
75928;SDS011;64606;44.062;2.986;2023-06-22T11:23:33;5.55;;;3.03;;
75928;SDS011;64606;44.062;2.986;2023-06-22T11:25:59;4.90;;;3.22;;
75928;SDS011;64606;44.062;2.986;2023-06-22T11:28:25;4.65;;;2.60;;
75928;SDS011;64606;44.062;2.986;2023-06-22T11:30:51;7.28;;;3.00;;
75928;SDS011;64606;44.062;2.986;2023-06-22T11:33:18;9.30;;;2.80;;
75928;SDS011;64606;44.062;2.986;2023-06-22T11:35:44;4.38;;;2.78;;
75928;SDS011;64606;44.062;2.986;2023-06-22T11:38:10;5.57;;;2.80;;
75928;SDS011;64606;44.062;2.986;2023-06-22T11:40:36;4.45;;;2.88;;
75928;SDS011;64606;44.062;2.986;2023-06-22T11:43:02;4.85;;;2.35;;
75928;SDS011;64606;44.062;2.986;2023-06-22T11:45:28;4.57;;;2.40;;
75928;SDS011;64606;44.062;2.986;2023-06-22T11:47:54;4.18;;;2.72;;
75928;SDS011;64606;44.062;2.986;2023-06-22T11:50:21;7.20;;;2.55;;
75928;SDS011;64606;44.062;2.986;2023-06-22T11:52:47;3.70;;;2.35;;
75928;SDS011;64606;44.062;2.986;2023-06-22T11:55:13;4.13;;;2.50;;
75928;SDS011;64606;44.062;2.986;2023-06-22T11:57:51;2.13;;;1.92;;
75928;SDS011;64606;44.062;2.986;2023-06-22T12:00:18;2.30;;;1.92;;
75928;SDS011;64606;44.062;2.986;2023-06-22T12:02:45;2.72;;;1.90;;
75928;SDS011;64606;44.062;2.986;2023-06-22T12:05:11;5.18;;;2.15;;
75928;SDS011;64606;44.062;2.986;2023-06-22T12:07:37;2.60;;;2.10;;
75928;SDS011;64606;44.062;2.986;2023-06-22T12:10:03;2.17;;;1.60;;
75928;SDS011;64606;44.062;2.986;2023-06-22T12:12:30;2.25;;;1.70;;
75928;SDS011;64606;44.062;2.986;2023-06-22T12:14:56;2.45;;;1.60;;
75928;SDS011;64606;44.062;2.986;2023-06-22T12:17:22;2.90;;;1.77;;
75928;SDS011;64606;44.062;2.986;2023-06-22T12:19:48;2.28;;;1.65;;
75928;SDS011;64606;44.062;2.986;2023-06-22T12:22:15;2.08;;;1.50;;
75928;SDS011;64606;44.062;2.986;2023-06-22T12:24:41;6.10;;;1.55;;
75928;SDS011;64606;44.062;2.986;2023-06-22T12:27:07;2.53;;;1.77;;
75928;SDS011;64606;44.062;2.986;2023-06-22T12:29:33;2.65;;;1.70;;
75928;SDS011;64606;44.062;2.986;2023-06-22T12:31:59;1.60;;;1.50;;
75928;SDS011;64606;44.062;2.986;2023-06-22T12:34:25;2.35;;;1.90;;
75928;SDS011;64606;44.062;2.986;2023-06-22T12:36:51;4.20;;;1.90;;
75928;SDS011;64606;44.062;2.986;2023-06-22T12:39:19;2.55;;;1.75;;
75928;SDS011;64606;44.062;2.986;2023-06-22T12:41:45;3.83;;;1.90;;
75928;SDS011;64606;44.062;2.986;2023-06-22T12:44:12;2.88;;;1.80;;
75928;SDS011;64606;44.062;2.986;2023-06-22T12:46:38;3.55;;;2.20;;
75928;SDS011;64606;44.062;2.986;2023-06-22T12:49:04;2.33;;;1.90;;
75928;SDS011;64606;44.062;2.986;2023-06-22T12:51:30;4.68;;;2.00;;
75928;SDS011;64606;44.062;2.986;2023-06-22T12:53:57;2.88;;;2.00;;
75928;SDS011;64606;44.062;2.986;2023-06-22T12:56:23;2.70;;;1.95;;
75928;SDS011;64606;44.062;2.986;2023-06-22T12:58:49;3.70;;;2.33;;
75928;SDS011;64606;44.062;2.986;2023-06-22T13:01:15;2.33;;;1.80;;
75928;SDS011;64606;44.062;2.986;2023-06-22T13:03:43;5.10;;;1.98;;
75928;SDS011;64606;44.062;2.986;2023-06-22T13:06:09;5.80;;;2.10;;
75928;SDS011;64606;44.062;2.986;2023-06-22T13:08:35;5.05;;;2.10;;
75928;SDS011;64606;44.062;2.986;2023-06-22T13:11:01;5.47;;;1.88;;
75928;SDS011;64606;44.062;2.986;2023-06-22T13:13:27;6.03;;;1.98;;
75928;SDS011;64606;44.062;2.986;2023-06-22T13:15:53;4.18;;;2.00;;
75928;SDS011;64606;44.062;2.986;2023-06-22T13:18:20;4.70;;;2.20;;
75928;SDS011;64606;44.062;2.986;2023-06-22T13:20:46;3.53;;;1.90;;
75928;SDS011;64606;44.062;2.986;2023-06-22T13:23:12;2.63;;;1.95;;
75928;SDS011;64606;44.062;2.986;2023-06-22T13:25:38;3.55;;;1.95;;
75928;SDS011;64606;44.062;2.986;2023-06-22T13:28:04;3.75;;;2.33;;
75928;SDS011;64606;44.062;2.986;2023-06-22T13:30:31;4.07;;;2.03;;
75928;SDS011;64606;44.062;2.986;2023-06-22T13:32:57;3.20;;;2.10;;
75928;SDS011;64606;44.062;2.986;2023-06-22T13:35:23;3.88;;;2.40;;
75928;SDS011;64606;44.062;2.986;2023-06-22T13:37:49;5.18;;;2.00;;
75928;SDS011;64606;44.062;2.986;2023-06-22T13:40:15;6.05;;;2.30;;
75928;SDS011;64606;44.062;2.986;2023-06-22T13:42:41;3.58;;;2.10;;
75928;SDS011;64606;44.062;2.986;2023-06-22T13:45:07;3.72;;;2.08;;
75928;SDS011;64606;44.062;2.986;2023-06-22T13:47:34;6.13;;;2.10;;
75928;SDS011;64606;44.062;2.986;2023-06-22T13:50:00;4.07;;;2.60;;
75928;SDS011;64606;44.062;2.986;2023-06-22T13:52:26;4.65;;;2.10;;
75928;SDS011;64606;44.062;2.986;2023-06-22T13:54:52;3.88;;;2.30;;
75928;SDS011;64606;44.062;2.986;2023-06-22T13:57:18;2.92;;;2.20;;
75928;SDS011;64606;44.062;2.986;2023-06-22T13:59:44;2.97;;;2.10;;
75928;SDS011;64606;44.062;2.986;2023-06-22T14:02:10;4.30;;;2.35;;
75928;SDS011;64606;44.062;2.986;2023-06-22T14:04:37;4.72;;;2.15;;
75928;SDS011;64606;44.062;2.986;2023-06-22T14:07:03;3.17;;;2.10;;
75928;SDS011;64606;44.062;2.986;2023-06-22T14:09:29;4.68;;;1.85;;
75928;SDS011;64606;44.062;2.986;2023-06-22T14:11:55;2.75;;;1.70;;
75928;SDS011;64606;44.062;2.986;2023-06-22T14:14:23;2.42;;;1.70;;
75928;SDS011;64606;44.062;2.986;2023-06-22T14:16:49;1.80;;;1.40;;
75928;SDS011;64606;44.062;2.986;2023-06-22T14:19:18;2.78;;;1.73;;
75928;SDS011;64606;44.062;2.986;2023-06-22T14:21:44;1.67;;;1.40;;
75928;SDS011;64606;44.062;2.986;2023-06-22T14:24:10;2.33;;;1.70;;
75928;SDS011;64606;44.062;2.986;2023-06-22T14:26:36;2.67;;;1.50;;
75928;SDS011;64606;44.062;2.986;2023-06-22T14:29:03;2.72;;;1.63;;
75928;SDS011;64606;44.062;2.986;2023-06-22T14:31:29;3.55;;;1.70;;
75928;SDS011;64606;44.062;2.986;2023-06-22T14:33:55;3.53;;;1.83;;
75928;SDS011;64606;44.062;2.986;2023-06-22T14:36:21;2.70;;;1.67;;
75928;SDS011;64606;44.062;2.986;2023-06-22T14:38:47;2.72;;;1.67;;
75928;SDS011;64606;44.062;2.986;2023-06-22T14:41:13;2.53;;;1.63;;
75928;SDS011;64606;44.062;2.986;2023-06-22T14:43:45;2.63;;;1.63;;
75928;SDS011;64606;44.062;2.986;2023-06-22T14:46:12;2.47;;;1.70;;